Nantucket Memorial Airport
KACK : rendu visible

Aérodrome :











RETROUVEZ-NOUS SUR...

 
LOGIN :

S'inscrire | Disclaimer

   EN    FR    IT 

 









Légende :    VFR   VFR Marginal   IFR   IFR Intensif   IFR Très Intensif
Visi : 
Plafond : 
>= 8 km
>= 3000ft
5 à 8 km
1000 à 3000 ft
1500m à 5 km
500 à 1000 ft
800 à 1500m
200 à 500 ft
< 800m
< 200 ft
Symboles :   Orages  Brouillard  Fortes neiges  Fortes précipitations  Vent > 20 kt






- Altitude de l'aérodrome : 47 ft
- Code IATA : ACK


KACK - Nantucket Memorial

DERNIER METAR :
  • 260251Z AUTO 20006KT 1/2SM R24/4000V4500FT FG VV002 17/16 A3015 RMK AO2

METARs EXPIRÉS :
  • 260234Z AUTO 21005KT 1 1/2SM R24/6000VP6000FT BR OVC002 17/16 A3015 RMK AO2 T01720161
  • 260205Z AUTO 21005KT 1 1/2SM BR OVC002 17/16 A3015 RMK AO2 T01670161
  • 260153Z AUTO 20006KT 1/2SM R24/P6000FT FG OVC003 16/16 A3015 RMK AO2 SLP209 T01610156
  • 260100Z AUTO 20006KT 1/2SM R24/2200V4000FT FG VV004 16/14 A3015 RMK AO2 T01560144
  • 260028Z 21004KT 7SM R24/4000VP6000FT SCT003 17/16 A3015 RMK AO2 T01670156

TAF KACK
Valide du 26 à 03h jusqu'au 27 à 00h UTC


260241Z 2603/2624 20005KT 1SM BR OVC002
FM260800 20005KT 1/4SM FG BKN003
FM261300 19006KT 1 1/2SM BR BKN003
FM261400 19007KT 2SM BR BKN008
FM261500 19007KT 3SM BR BKN015
FM261700 19008KT P6SM BKN040
FM262100 18008KT P6SM BKN010
FIR KZBW / Amérique du Nord



MET'MAP, la Météo Aéronautique d'un coup d'oeil ! - Copyright ORBIFLY Décembre 2007 - Disclaimer

ORBIFLY MET'MAP TEAM :

Programmation & Développement : Alexandra Zaïnal
Sur une idée originale de : Baudouin d'Aumeries
Assistance à la programmation : Marc-Olivier Méhu
Soutien technique & logistique : Manuel Goepfert

Contact : metmap@orbifly.com




SOURCES & CREDITS :

   NOAA       Earth
Advisory